sensor_id;sensor_type;location;lat;lon;timestamp;P1;durP1;ratioP1;P2;durP2;ratioP2
54853;SDS011;40747;49.480;8.658;2023-02-03T00:00:35;4.05;;;1.92;;
54853;SDS011;40747;49.480;8.658;2023-02-03T00:03:01;3.20;;;1.00;;
54853;SDS011;40747;49.480;8.658;2023-02-03T00:05:26;2.47;;;1.48;;
54853;SDS011;40747;49.480;8.658;2023-02-03T00:07:53;4.40;;;2.15;;
54853;SDS011;40747;49.480;8.658;2023-02-03T00:10:18;4.85;;;1.92;;
54853;SDS011;40747;49.480;8.658;2023-02-03T00:12:46;2.88;;;1.45;;
54853;SDS011;40747;49.480;8.658;2023-02-03T00:15:13;2.75;;;1.95;;
54853;SDS011;40747;49.480;8.658;2023-02-03T00:17:38;4.85;;;2.92;;
54853;SDS011;40747;49.480;8.658;2023-02-03T00:20:04;3.20;;;2.05;;
54853;SDS011;40747;49.480;8.658;2023-02-03T00:22:30;3.72;;;2.05;;
54853;SDS011;40747;49.480;8.658;2023-02-03T00:24:55;5.55;;;2.35;;
54853;SDS011;40747;49.480;8.658;2023-02-03T00:27:20;5.85;;;1.90;;
54853;SDS011;40747;49.480;8.658;2023-02-03T00:29:46;3.65;;;2.10;;
54853;SDS011;40747;49.480;8.658;2023-02-03T00:32:11;3.65;;;1.75;;
54853;SDS011;40747;49.480;8.658;2023-02-03T00:34:36;1.83;;;1.20;;
54853;SDS011;40747;49.480;8.658;2023-02-03T00:37:01;5.63;;;2.60;;
54853;SDS011;40747;49.480;8.658;2023-02-03T00:39:27;7.32;;;2.10;;
54853;SDS011;40747;49.480;8.658;2023-02-03T00:41:52;1.67;;;1.17;;
54853;SDS011;40747;49.480;8.658;2023-02-03T00:44:17;4.85;;;2.33;;
54853;SDS011;40747;49.480;8.658;2023-02-03T00:46:43;4.47;;;1.92;;
54853;SDS011;40747;49.480;8.658;2023-02-03T00:49:08;8.18;;;1.40;;
54853;SDS011;40747;49.480;8.658;2023-02-03T00:51:33;3.33;;;1.80;;
54853;SDS011;40747;49.480;8.658;2023-02-03T00:53:59;3.05;;;1.35;;
54853;SDS011;40747;49.480;8.658;2023-02-03T00:56:24;4.82;;;1.85;;
54853;SDS011;40747;49.480;8.658;2023-02-03T00:58:50;8.40;;;2.80;;
54853;SDS011;40747;49.480;8.658;2023-02-03T01:01:15;4.28;;;2.78;;
54853;SDS011;40747;49.480;8.658;2023-02-03T01:03:40;2.65;;;1.85;;
54853;SDS011;40747;49.480;8.658;2023-02-03T01:06:16;3.35;;;1.65;;
54853;SDS011;40747;49.480;8.658;2023-02-03T01:08:43;2.47;;;1.73;;
54853;SDS011;40747;49.480;8.658;2023-02-03T01:11:09;2.60;;;1.60;;
54853;SDS011;40747;49.480;8.658;2023-02-03T01:13:36;4.60;;;2.88;;
54853;SDS011;40747;49.480;8.658;2023-02-03T01:16:02;4.07;;;1.73;;
54853;SDS011;40747;49.480;8.658;2023-02-03T01:18:30;2.25;;;1.83;;
54853;SDS011;40747;49.480;8.658;2023-02-03T01:20:56;6.13;;;2.13;;
54853;SDS011;40747;49.480;8.658;2023-02-03T01:23:21;2.97;;;1.80;;
54853;SDS011;40747;49.480;8.658;2023-02-03T01:25:46;1.77;;;1.08;;
54853;SDS011;40747;49.480;8.658;2023-02-03T01:28:11;11.90;;;1.70;;
54853;SDS011;40747;49.480;8.658;2023-02-03T01:30:37;4.13;;;1.55;;
54853;SDS011;40747;49.480;8.658;2023-02-03T01:33:02;4.93;;;1.60;;
54853;SDS011;40747;49.480;8.658;2023-02-03T01:35:28;1.73;;;1.23;;
54853;SDS011;40747;49.480;8.658;2023-02-03T01:37:53;3.47;;;1.83;;
54853;SDS011;40747;49.480;8.658;2023-02-03T01:40:18;1.90;;;1.30;;
54853;SDS011;40747;49.480;8.658;2023-02-03T01:42:44;5.32;;;2.47;;
54853;SDS011;40747;49.480;8.658;2023-02-03T01:45:09;8.10;;;2.03;;
54853;SDS011;40747;49.480;8.658;2023-02-03T01:47:45;2.25;;;1.40;;
54853;SDS011;40747;49.480;8.658;2023-02-03T01:50:16;2.92;;;1.45;;
54853;SDS011;40747;49.480;8.658;2023-02-03T01:52:46;5.57;;;1.95;;
54853;SDS011;40747;49.480;8.658;2023-02-03T01:55:16;2.28;;;1.02;;
54853;SDS011;40747;49.480;8.658;2023-02-03T01:57:46;1.42;;;1.33;;
54853;SDS011;40747;49.480;8.658;2023-02-03T02:00:25;1.10;;;0.93;;
54853;SDS011;40747;49.480;8.658;2023-02-03T02:02:51;1.17;;;1.00;;
54853;SDS011;40747;49.480;8.658;2023-02-03T02:05:52;1.38;;;0.80;;
54853;SDS011;40747;49.480;8.658;2023-02-03T02:08:18;7.13;;;1.73;;
54853;SDS011;40747;49.480;8.658;2023-02-03T02:10:46;4.15;;;1.08;;
54853;SDS011;40747;49.480;8.658;2023-02-03T02:13:12;3.30;;;1.65;;
54853;SDS011;40747;49.480;8.658;2023-02-03T02:32:33;2.47;;;1.10;;
54853;SDS011;40747;49.480;8.658;2023-02-03T02:35:10;1.35;;;0.93;;
54853;SDS011;40747;49.480;8.658;2023-02-03T02:38:04;1.77;;;1.42;;
54853;SDS011;40747;49.480;8.658;2023-02-03T02:40:49;1.55;;;0.85;;
54853;SDS011;40747;49.480;8.658;2023-02-03T02:43:20;1.17;;;0.70;;
54853;SDS011;40747;49.480;8.658;2023-02-03T02:45:55;1.17;;;1.02;;
54853;SDS011;40747;49.480;8.658;2023-02-03T02:48:31;2.22;;;0.82;;
54853;SDS011;40747;49.480;8.658;2023-02-03T02:51:02;0.70;;;0.70;;
54853;SDS011;40747;49.480;8.658;2023-02-03T02:53:34;0.55;;;0.55;;
54853;SDS011;40747;49.480;8.658;2023-02-03T02:56:04;1.20;;;0.75;;
54853;SDS011;40747;49.480;8.658;2023-02-03T02:58:32;1.95;;;1.25;;
54853;SDS011;40747;49.480;8.658;2023-02-03T03:01:00;1.00;;;0.82;;
54853;SDS011;40747;49.480;8.658;2023-02-03T03:03:26;1.90;;;0.90;;
54853;SDS011;40747;49.480;8.658;2023-02-03T03:05:56;2.15;;;0.85;;
54853;SDS011;40747;49.480;8.658;2023-02-03T03:08:30;7.22;;;1.08;;
54853;SDS011;40747;49.480;8.658;2023-02-03T03:11:01;1.92;;;0.85;;
54853;SDS011;40747;49.480;8.658;2023-02-03T03:13:29;0.85;;;0.80;;
54853;SDS011;40747;49.480;8.658;2023-02-03T03:15:58;2.55;;;0.98;;
54853;SDS011;40747;49.480;8.658;2023-02-03T03:18:27;1.25;;;0.65;;
54853;SDS011;40747;49.480;8.658;2023-02-03T03:21:01;1.30;;;0.77;;
54853;SDS011;40747;49.480;8.658;2023-02-03T03:23:37;1.55;;;0.90;;
54853;SDS011;40747;49.480;8.658;2023-02-03T03:26:29;4.15;;;1.33;;
54853;SDS011;40747;49.480;8.658;2023-02-03T03:29:04;1.75;;;1.10;;
54853;SDS011;40747;49.480;8.658;2023-02-03T03:31:34;1.42;;;1.10;;
54853;SDS011;40747;49.480;8.658;2023-02-03T03:34:00;1.15;;;0.85;;
54853;SDS011;40747;49.480;8.658;2023-02-03T03:36:30;3.10;;;1.13;;
54853;SDS011;40747;49.480;8.658;2023-02-03T03:42:36;5.00;;;1.75;;
54853;SDS011;40747;49.480;8.658;2023-02-03T03:44:57;1.15;;;0.55;;
54853;SDS011;40747;49.480;8.658;2023-02-03T03:47:29;2.05;;;1.60;;
54853;SDS011;40747;49.480;8.658;2023-02-03T03:50:01;1.50;;;1.30;;
54853;SDS011;40747;49.480;8.658;2023-02-03T03:52:31;1.20;;;0.80;;
54853;SDS011;40747;49.480;8.658;2023-02-03T03:55:00;1.33;;;1.20;;
54853;SDS011;40747;49.480;8.658;2023-02-03T03:57:29;4.20;;;1.38;;
54853;SDS011;40747;49.480;8.658;2023-02-03T03:59:59;0.93;;;0.65;;
54853;SDS011;40747;49.480;8.658;2023-02-03T04:02:29;1.10;;;0.80;;
54853;SDS011;40747;49.480;8.658;2023-02-03T04:04:57;4.38;;;1.10;;
54853;SDS011;40747;49.480;8.658;2023-02-03T04:07:36;3.90;;;2.35;;
54853;SDS011;40747;49.480;8.658;2023-02-03T04:10:22;1.27;;;1.05;;
54853;SDS011;40747;49.480;8.658;2023-02-03T04:12:53;4.32;;;1.58;;
54853;SDS011;40747;49.480;8.658;2023-02-03T04:15:19;1.00;;;0.90;;
54853;SDS011;40747;49.480;8.658;2023-02-03T04:17:44;2.53;;;0.82;;
54853;SDS011;40747;49.480;8.658;2023-02-03T04:20:10;1.00;;;0.90;;
54853;SDS011;40747;49.480;8.658;2023-02-03T04:22:35;2.50;;;1.10;;
54853;SDS011;40747;49.480;8.658;2023-02-03T04:25:01;6.13;;;1.17;;
54853;SDS011;40747;49.480;8.658;2023-02-03T04:27:26;1.40;;;1.10;;
54853;SDS011;40747;49.480;8.658;2023-02-03T04:29:52;9.02;;;1.50;;
54853;SDS011;40747;49.480;8.658;2023-02-03T04:32:17;4.00;;;1.20;;
54853;SDS011;40747;49.480;8.658;2023-02-03T04:34:43;1.30;;;1.17;;
54853;SDS011;40747;49.480;8.658;2023-02-03T04:37:08;1.70;;;1.20;;
54853;SDS011;40747;49.480;8.658;2023-02-03T04:39:34;5.53;;;1.73;;
54853;SDS011;40747;49.480;8.658;2023-02-03T04:41:59;3.20;;;1.02;;
54853;SDS011;40747;49.480;8.658;2023-02-03T04:44:24;2.78;;;1.05;;
54853;SDS011;40747;49.480;8.658;2023-02-03T04:46:49;0.88;;;0.80;;
54853;SDS011;40747;49.480;8.658;2023-02-03T04:49:15;2.20;;;1.35;;
54853;SDS011;40747;49.480;8.658;2023-02-03T04:51:41;2.08;;;0.88;;
54853;SDS011;40747;49.480;8.658;2023-02-03T04:54:08;1.95;;;1.27;;
54853;SDS011;40747;49.480;8.658;2023-02-03T04:56:33;1.48;;;1.20;;
54853;SDS011;40747;49.480;8.658;2023-02-03T04:58:58;2.30;;;1.50;;
54853;SDS011;40747;49.480;8.658;2023-02-03T05:01:24;3.50;;;1.88;;
54853;SDS011;40747;49.480;8.658;2023-02-03T05:03:49;1.30;;;1.17;;
54853;SDS011;40747;49.480;8.658;2023-02-03T05:06:14;3.97;;;1.90;;
54853;SDS011;40747;49.480;8.658;2023-02-03T05:08:40;4.00;;;1.40;;
54853;SDS011;40747;49.480;8.658;2023-02-03T05:11:05;2.03;;;1.45;;
54853;SDS011;40747;49.480;8.658;2023-02-03T05:13:30;2.50;;;1.40;;
54853;SDS011;40747;49.480;8.658;2023-02-03T05:15:56;2.08;;;1.35;;
54853;SDS011;40747;49.480;8.658;2023-02-03T05:18:21;6.43;;;2.28;;
54853;SDS011;40747;49.480;8.658;2023-02-03T05:20:46;2.90;;;2.03;;
54853;SDS011;40747;49.480;8.658;2023-02-03T05:23:11;2.53;;;1.55;;
54853;SDS011;40747;49.480;8.658;2023-02-03T05:25:37;2.42;;;1.42;;
54853;SDS011;40747;49.480;8.658;2023-02-03T05:28:02;1.95;;;1.55;;
54853;SDS011;40747;49.480;8.658;2023-02-03T05:30:27;3.63;;;1.90;;
54853;SDS011;40747;49.480;8.658;2023-02-03T05:32:53;2.60;;;1.60;;
54853;SDS011;40747;49.480;8.658;2023-02-03T05:35:18;7.13;;;3.05;;
54853;SDS011;40747;49.480;8.658;2023-02-03T05:37:44;5.10;;;2.88;;
54853;SDS011;40747;49.480;8.658;2023-02-03T05:40:10;7.20;;;4.10;;
54853;SDS011;40747;49.480;8.658;2023-02-03T05:42:55;5.38;;;4.03;;
54853;SDS011;40747;49.480;8.658;2023-02-03T05:45:21;3.47;;;2.53;;
54853;SDS011;40747;49.480;8.658;2023-02-03T05:47:46;3.72;;;2.60;;
54853;SDS011;40747;49.480;8.658;2023-02-03T05:50:11;3.90;;;2.72;;
54853;SDS011;40747;49.480;8.658;2023-02-03T05:52:36;3.03;;;2.33;;
54853;SDS011;40747;49.480;8.658;2023-02-03T05:55:02;4.75;;;2.83;;
54853;SDS011;40747;49.480;8.658;2023-02-03T05:57:27;9.93;;;2.70;;
54853;SDS011;40747;49.480;8.658;2023-02-03T05:59:53;4.45;;;3.08;;
54853;SDS011;40747;49.480;8.658;2023-02-03T06:02:18;5.47;;;2.85;;
54853;SDS011;40747;49.480;8.658;2023-02-03T06:04:43;2.60;;;2.08;;
54853;SDS011;40747;49.480;8.658;2023-02-03T06:07:09;2.90;;;2.70;;
54853;SDS011;40747;49.480;8.658;2023-02-03T06:09:34;7.20;;;3.13;;
54853;SDS011;40747;49.480;8.658;2023-02-03T06:11:59;8.70;;;2.22;;
54853;SDS011;40747;49.480;8.658;2023-02-03T06:14:25;2.83;;;2.13;;
54853;SDS011;40747;49.480;8.658;2023-02-03T06:16:52;7.53;;;2.42;;
54853;SDS011;40747;49.480;8.658;2023-02-03T06:19:17;2.53;;;1.95;;
54853;SDS011;40747;49.480;8.658;2023-02-03T06:21:42;4.05;;;3.33;;
54853;SDS011;40747;49.480;8.658;2023-02-03T06:24:08;4.32;;;2.35;;
54853;SDS011;40747;49.480;8.658;2023-02-03T06:26:34;3.83;;;3.17;;
54853;SDS011;40747;49.480;8.658;2023-02-03T06:28:59;4.93;;;2.55;;
54853;SDS011;40747;49.480;8.658;2023-02-03T06:31:24;7.32;;;2.65;;
54853;SDS011;40747;49.480;8.658;2023-02-03T06:33:52;5.03;;;2.63;;
54853;SDS011;40747;49.480;8.658;2023-02-03T06:36:18;2.95;;;1.83;;
54853;SDS011;40747;49.480;8.658;2023-02-03T06:38:43;6.13;;;3.30;;
54853;SDS011;40747;49.480;8.658;2023-02-03T06:41:08;3.85;;;2.35;;
54853;SDS011;40747;49.480;8.658;2023-02-03T06:43:43;3.45;;;2.90;;
54853;SDS011;40747;49.480;8.658;2023-02-03T06:46:08;4.43;;;3.00;;
54853;SDS011;40747;49.480;8.658;2023-02-03T06:48:34;2.45;;;1.98;;
54853;SDS011;40747;49.480;8.658;2023-02-03T06:50:59;2.92;;;2.53;;
54853;SDS011;40747;49.480;8.658;2023-02-03T06:53:25;4.57;;;2.58;;
54853;SDS011;40747;49.480;8.658;2023-02-03T06:55:50;17.45;;;2.30;;
54853;SDS011;40747;49.480;8.658;2023-02-03T06:58:16;2.13;;;1.45;;
54853;SDS011;40747;49.480;8.658;2023-02-03T07:00:41;1.85;;;1.55;;
54853;SDS011;40747;49.480;8.658;2023-02-03T07:03:07;2.28;;;1.33;;
54853;SDS011;40747;49.480;8.658;2023-02-03T07:05:32;0.50;;;0.50;;
54853;SDS011;40747;49.480;8.658;2023-02-03T07:07:59;2.47;;;1.13;;
54853;SDS011;40747;49.480;8.658;2023-02-03T07:10:25;1.42;;;1.13;;
54853;SDS011;40747;49.480;8.658;2023-02-03T07:12:50;2.05;;;1.27;;
54853;SDS011;40747;49.480;8.658;2023-02-03T07:15:15;2.58;;;1.33;;
54853;SDS011;40747;49.480;8.658;2023-02-03T07:17:41;2.22;;;1.40;;
54853;SDS011;40747;49.480;8.658;2023-02-03T07:20:07;1.60;;;0.93;;
54853;SDS011;40747;49.480;8.658;2023-02-03T07:22:32;1.58;;;1.27;;
54853;SDS011;40747;49.480;8.658;2023-02-03T07:24:58;1.85;;;1.25;;
54853;SDS011;40747;49.480;8.658;2023-02-03T07:27:23;1.60;;;1.38;;
54853;SDS011;40747;49.480;8.658;2023-02-03T07:29:49;0.93;;;0.80;;
54853;SDS011;40747;49.480;8.658;2023-02-03T07:32:14;3.45;;;1.50;;
54853;SDS011;40747;49.480;8.658;2023-02-03T07:34:40;2.75;;;1.23;;
54853;SDS011;40747;49.480;8.658;2023-02-03T07:37:05;2.28;;;1.02;;
54853;SDS011;40747;49.480;8.658;2023-02-03T07:39:30;1.92;;;1.42;;
54853;SDS011;40747;49.480;8.658;2023-02-03T07:41:57;1.73;;;1.52;;
54853;SDS011;40747;49.480;8.658;2023-02-03T07:44:22;2.08;;;1.60;;
54853;SDS011;40747;49.480;8.658;2023-02-03T07:46:47;1.88;;;1.40;;
54853;SDS011;40747;49.480;8.658;2023-02-03T07:49:13;1.67;;;1.38;;
54853;SDS011;40747;49.480;8.658;2023-02-03T07:51:41;1.77;;;1.50;;
54853;SDS011;40747;49.480;8.658;2023-02-03T07:54:07;1.98;;;1.38;;
54853;SDS011;40747;49.480;8.658;2023-02-03T07:56:32;1.92;;;1.30;;
54853;SDS011;40747;49.480;8.658;2023-02-03T07:58:59;2.65;;;1.25;;
54853;SDS011;40747;49.480;8.658;2023-02-03T08:03:52;1.20;;;0.90;;
54853;SDS011;40747;49.480;8.658;2023-02-03T08:06:17;1.73;;;1.63;;
54853;SDS011;40747;49.480;8.658;2023-02-03T08:08:42;0.85;;;0.73;;
54853;SDS011;40747;49.480;8.658;2023-02-03T08:11:08;4.82;;;1.60;;
54853;SDS011;40747;49.480;8.658;2023-02-03T08:13:34;2.35;;;1.27;;
54853;SDS011;40747;49.480;8.658;2023-02-03T08:15:59;1.42;;;1.25;;
54853;SDS011;40747;49.480;8.658;2023-02-03T08:18:24;1.45;;;1.17;;
54853;SDS011;40747;49.480;8.658;2023-02-03T08:20:50;9.43;;;1.42;;
54853;SDS011;40747;49.480;8.658;2023-02-03T08:23:16;1.23;;;0.93;;
54853;SDS011;40747;49.480;8.658;2023-02-03T08:25:41;1.33;;;1.02;;
54853;SDS011;40747;49.480;8.658;2023-02-03T08:28:06;1.45;;;1.15;;
54853;SDS011;40747;49.480;8.658;2023-02-03T08:30:32;1.75;;;1.38;;
54853;SDS011;40747;49.480;8.658;2023-02-03T08:32:57;1.50;;;1.40;;
54853;SDS011;40747;49.480;8.658;2023-02-03T08:35:23;3.25;;;1.30;;
54853;SDS011;40747;49.480;8.658;2023-02-03T08:37:49;2.20;;;1.67;;
54853;SDS011;40747;49.480;8.658;2023-02-03T08:40:14;1.20;;;1.05;;
54853;SDS011;40747;49.480;8.658;2023-02-03T08:42:42;1.58;;;1.48;;
54853;SDS011;40747;49.480;8.658;2023-02-03T08:45:07;1.40;;;1.30;;
54853;SDS011;40747;49.480;8.658;2023-02-03T08:47:33;1.73;;;1.60;;
54853;SDS011;40747;49.480;8.658;2023-02-03T08:50:00;1.00;;;0.77;;
54853;SDS011;40747;49.480;8.658;2023-02-03T08:52:27;2.15;;;1.25;;
54853;SDS011;40747;49.480;8.658;2023-02-03T08:54:52;3.47;;;1.42;;
54853;SDS011;40747;49.480;8.658;2023-02-03T08:57:17;2.17;;;1.08;;
54853;SDS011;40747;49.480;8.658;2023-02-03T08:59:44;2.15;;;1.35;;
54853;SDS011;40747;49.480;8.658;2023-02-03T09:02:12;2.17;;;1.60;;
54853;SDS011;40747;49.480;8.658;2023-02-03T09:04:40;3.05;;;1.80;;
54853;SDS011;40747;49.480;8.658;2023-02-03T09:07:06;1.75;;;1.30;;
54853;SDS011;40747;49.480;8.658;2023-02-03T09:09:31;0.93;;;0.85;;
54853;SDS011;40747;49.480;8.658;2023-02-03T09:11:57;1.27;;;0.90;;
54853;SDS011;40747;49.480;8.658;2023-02-03T09:14:29;1.45;;;1.17;;
54853;SDS011;40747;49.480;8.658;2023-02-03T09:16:57;1.75;;;1.40;;
54853;SDS011;40747;49.480;8.658;2023-02-03T09:19:23;1.52;;;0.95;;
54853;SDS011;40747;49.480;8.658;2023-02-03T09:21:48;1.63;;;1.20;;
54853;SDS011;40747;49.480;8.658;2023-02-03T09:24:14;1.20;;;0.93;;
54853;SDS011;40747;49.480;8.658;2023-02-03T09:26:39;4.50;;;1.17;;
54853;SDS011;40747;49.480;8.658;2023-02-03T09:29:05;1.05;;;0.70;;
54853;SDS011;40747;49.480;8.658;2023-02-03T09:31:31;2.08;;;0.90;;
54853;SDS011;40747;49.480;8.658;2023-02-03T09:33:57;1.00;;;0.63;;
54853;SDS011;40747;49.480;8.658;2023-02-03T09:36:23;0.50;;;0.50;;
54853;SDS011;40747;49.480;8.658;2023-02-03T09:38:49;1.15;;;1.05;;
54853;SDS011;40747;49.480;8.658;2023-02-03T09:41:17;1.88;;;0.88;;
54853;SDS011;40747;49.480;8.658;2023-02-03T09:46:41;1.67;;;1.00;;
54853;SDS011;40747;49.480;8.658;2023-02-03T09:51:55;1.15;;;0.73;;
54853;SDS011;40747;49.480;8.658;2023-02-03T09:54:28;1.00;;;0.90;;
54853;SDS011;40747;49.480;8.658;2023-02-03T09:56:58;0.85;;;0.80;;
54853;SDS011;40747;49.480;8.658;2023-02-03T09:59:26;1.02;;;0.70;;
54853;SDS011;40747;49.480;8.658;2023-02-03T10:02:02;1.48;;;0.70;;
54853;SDS011;40747;49.480;8.658;2023-02-03T10:04:49;1.20;;;0.70;;
54853;SDS011;40747;49.480;8.658;2023-02-03T10:07:35;1.20;;;0.80;;
54853;SDS011;40747;49.480;8.658;2023-02-03T10:13:09;0.77;;;0.40;;
54853;SDS011;40747;49.480;8.658;2023-02-03T10:15:53;0.85;;;0.60;;
54853;SDS011;40747;49.480;8.658;2023-02-03T10:18:27;0.50;;;0.50;;
54853;SDS011;40747;49.480;8.658;2023-02-03T10:20:58;0.40;;;0.40;;
54853;SDS011;40747;49.480;8.658;2023-02-03T10:23:32;0.30;;;0.25;;
54853;SDS011;40747;49.480;8.658;2023-02-03T10:26:01;0.60;;;0.60;;
54853;SDS011;40747;49.480;8.658;2023-02-03T10:28:33;0.73;;;0.70;;
54853;SDS011;40747;49.480;8.658;2023-02-03T10:31:05;0.83;;;0.50;;
54853;SDS011;40747;49.480;8.658;2023-02-03T10:33:44;0.40;;;0.40;;
54853;SDS011;40747;49.480;8.658;2023-02-03T10:36:18;1.00;;;0.55;;
54853;SDS011;40747;49.480;8.658;2023-02-03T10:41:26;0.75;;;0.40;;
54853;SDS011;40747;49.480;8.658;2023-02-03T10:43:54;0.75;;;0.55;;
54853;SDS011;40747;49.480;8.658;2023-02-03T10:46:28;2.47;;;0.98;;
54853;SDS011;40747;49.480;8.658;2023-02-03T10:48:55;3.38;;;0.68;;
54853;SDS011;40747;49.480;8.658;2023-02-03T10:53:49;1.65;;;0.30;;
54853;SDS011;40747;49.480;8.658;2023-02-03T10:56:18;2.78;;;0.90;;
54853;SDS011;40747;49.480;8.658;2023-02-03T10:58:58;1.17;;;0.77;;
54853;SDS011;40747;49.480;8.658;2023-02-03T11:01:37;1.35;;;0.80;;
54853;SDS011;40747;49.480;8.658;2023-02-03T11:04:03;1.67;;;1.00;;
54853;SDS011;40747;49.480;8.658;2023-02-03T11:06:30;0.95;;;0.90;;
54853;SDS011;40747;49.480;8.658;2023-02-03T11:08:57;0.45;;;0.45;;
54853;SDS011;40747;49.480;8.658;2023-02-03T11:11:26;0.32;;;0.30;;
54853;SDS011;40747;49.480;8.658;2023-02-03T11:14:09;3.40;;;0.52;;
54853;SDS011;40747;49.480;8.658;2023-02-03T11:16:37;0.73;;;0.68;;
54853;SDS011;40747;49.480;8.658;2023-02-03T11:19:06;0.50;;;0.50;;
54853;SDS011;40747;49.480;8.658;2023-02-03T11:21:42;0.63;;;0.47;;
54853;SDS011;40747;49.480;8.658;2023-02-03T11:24:27;3.10;;;0.80;;
54853;SDS011;40747;49.480;8.658;2023-02-03T11:29:31;1.27;;;1.10;;
54853;SDS011;40747;49.480;8.658;2023-02-03T11:31:59;1.30;;;0.52;;
54853;SDS011;40747;49.480;8.658;2023-02-03T11:36:57;1.50;;;0.82;;
54853;SDS011;40747;49.480;8.658;2023-02-03T11:39:48;1.80;;;0.93;;
54853;SDS011;40747;49.480;8.658;2023-02-03T11:42:20;0.45;;;0.45;;
54853;SDS011;40747;49.480;8.658;2023-02-03T11:44:47;2.97;;;0.70;;
54853;SDS011;40747;49.480;8.658;2023-02-03T11:47:12;1.92;;;0.80;;
54853;SDS011;40747;49.480;8.658;2023-02-03T11:49:50;1.10;;;0.82;;
54853;SDS011;40747;49.480;8.658;2023-02-03T11:57:31;5.10;;;1.40;;
54853;SDS011;40747;49.480;8.658;2023-02-03T12:18:55;1.15;;;0.60;;
54853;SDS011;40747;49.480;8.658;2023-02-03T12:21:39;0.55;;;0.45;;
54853;SDS011;40747;49.480;8.658;2023-02-03T12:29:42;0.55;;;0.50;;
54853;SDS011;40747;49.480;8.658;2023-02-03T12:32:33;0.70;;;0.40;;
54853;SDS011;40747;49.480;8.658;2023-02-03T12:35:32;0.60;;;0.52;;
54853;SDS011;40747;49.480;8.658;2023-02-03T12:40:34;3.63;;;0.88;;
54853;SDS011;40747;49.480;8.658;2023-02-03T12:45:49;1.17;;;0.70;;
54853;SDS011;40747;49.480;8.658;2023-02-03T12:48:19;0.68;;;0.32;;
54853;SDS011;40747;49.480;8.658;2023-02-03T12:50:59;0.55;;;0.40;;
54853;SDS011;40747;49.480;8.658;2023-02-03T12:53:33;0.32;;;0.20;;
54853;SDS011;40747;49.480;8.658;2023-02-03T12:58:32;0.70;;;0.65;;
54853;SDS011;40747;49.480;8.658;2023-02-03T13:01:07;0.87;;;0.50;;
54853;SDS011;40747;49.480;8.658;2023-02-03T13:03:44;0.30;;;0.30;;
54853;SDS011;40747;49.480;8.658;2023-02-03T13:06:30;0.40;;;0.40;;
54853;SDS011;40747;49.480;8.658;2023-02-03T13:14:33;0.50;;;0.50;;
54853;SDS011;40747;49.480;8.658;2023-02-03T13:17:13;0.45;;;0.40;;
54853;SDS011;40747;49.480;8.658;2023-02-03T13:19:41;0.60;;;0.40;;
54853;SDS011;40747;49.480;8.658;2023-02-03T13:22:12;1.58;;;0.60;;
54853;SDS011;40747;49.480;8.658;2023-02-03T13:24:47;0.40;;;0.40;;
54853;SDS011;40747;49.480;8.658;2023-02-03T13:27:29;1.90;;;0.70;;
54853;SDS011;40747;49.480;8.658;2023-02-03T13:43:22;1.08;;;0.80;;
54853;SDS011;40747;49.480;8.658;2023-02-03T13:46:20;0.40;;;0.40;;
54853;SDS011;40747;49.480;8.658;2023-02-03T13:48:48;0.32;;;0.32;;
54853;SDS011;40747;49.480;8.658;2023-02-03T13:51:16;0.50;;;0.50;;
54853;SDS011;40747;49.480;8.658;2023-02-03T13:53:47;0.55;;;0.50;;
54853;SDS011;40747;49.480;8.658;2023-02-03T13:56:22;0.20;;;0.20;;
54853;SDS011;40747;49.480;8.658;2023-02-03T14:01:50;0.40;;;0.30;;
54853;SDS011;40747;49.480;8.658;2023-02-03T14:07:01;0.20;;;0.20;;
54853;SDS011;40747;49.480;8.658;2023-02-03T14:14:43;0.65;;;0.50;;
54853;SDS011;40747;49.480;8.658;2023-02-03T14:19:58;4.38;;;0.57;;
54853;SDS011;40747;49.480;8.658;2023-02-03T14:22:24;0.25;;;0.22;;
54853;SDS011;40747;49.480;8.658;2023-02-03T14:24:51;0.50;;;0.40;;
54853;SDS011;40747;49.480;8.658;2023-02-03T14:30:06;0.55;;;0.50;;
54853;SDS011;40747;49.480;8.658;2023-02-03T14:35:23;1.80;;;0.40;;
54853;SDS011;40747;49.480;8.658;2023-02-03T14:38:02;0.22;;;0.20;;
54853;SDS011;40747;49.480;8.658;2023-02-03T14:40:36;0.30;;;0.25;;
54853;SDS011;40747;49.480;8.658;2023-02-03T14:52:11;0.43;;;0.43;;
54853;SDS011;40747;49.480;8.658;2023-02-03T14:57:46;0.25;;;0.25;;
54853;SDS011;40747;49.480;8.658;2023-02-03T15:00:25;0.32;;;0.20;;
54853;SDS011;40747;49.480;8.658;2023-02-03T15:05:39;0.45;;;0.40;;
54853;SDS011;40747;49.480;8.658;2023-02-03T15:08:52;0.68;;;0.30;;
54853;SDS011;40747;49.480;8.658;2023-02-03T15:11:00;0.50;;;0.50;;
54853;SDS011;40747;49.480;8.658;2023-02-03T15:13:47;0.40;;;0.30;;
54853;SDS011;40747;49.480;8.658;2023-02-03T15:16:13;0.68;;;0.40;;
54853;SDS011;40747;49.480;8.658;2023-02-03T15:18:55;0.52;;;0.50;;
54853;SDS011;40747;49.480;8.658;2023-02-03T15:21:22;1.10;;;0.30;;
54853;SDS011;40747;49.480;8.658;2023-02-03T15:23:48;0.45;;;0.35;;
54853;SDS011;40747;49.480;8.658;2023-02-03T15:26:17;0.30;;;0.30;;
54853;SDS011;40747;49.480;8.658;2023-02-03T15:28:54;0.60;;;0.60;;
54853;SDS011;40747;49.480;8.658;2023-02-03T15:31:41;0.85;;;0.60;;
54853;SDS011;40747;49.480;8.658;2023-02-03T15:34:26;0.40;;;0.40;;
54853;SDS011;40747;49.480;8.658;2023-02-03T15:36:59;0.73;;;0.65;;
54853;SDS011;40747;49.480;8.658;2023-02-03T15:39:41;1.10;;;0.73;;
54853;SDS011;40747;49.480;8.658;2023-02-03T15:45:06;0.30;;;0.30;;
54853;SDS011;40747;49.480;8.658;2023-02-03T15:47:46;0.60;;;0.50;;
54853;SDS011;40747;49.480;8.658;2023-02-03T15:52:45;0.45;;;0.43;;
54853;SDS011;40747;49.480;8.658;2023-02-03T15:55:15;0.98;;;0.68;;
54853;SDS011;40747;49.480;8.658;2023-02-03T15:57:49;1.35;;;0.88;;
54853;SDS011;40747;49.480;8.658;2023-02-03T16:00:22;1.98;;;1.00;;
54853;SDS011;40747;49.480;8.658;2023-02-03T16:02:59;0.65;;;0.47;;
54853;SDS011;40747;49.480;8.658;2023-02-03T16:05:29;0.50;;;0.50;;
54853;SDS011;40747;49.480;8.658;2023-02-03T16:10:56;1.60;;;1.50;;
54853;SDS011;40747;49.480;8.658;2023-02-03T16:13:22;1.77;;;0.85;;
54853;SDS011;40747;49.480;8.658;2023-02-03T16:15:59;1.17;;;0.60;;
54853;SDS011;40747;49.480;8.658;2023-02-03T16:18:52;2.60;;;1.35;;
54853;SDS011;40747;49.480;8.658;2023-02-03T16:23:59;1.55;;;0.80;;
54853;SDS011;40747;49.480;8.658;2023-02-03T16:26:26;0.63;;;0.50;;
54853;SDS011;40747;49.480;8.658;2023-02-03T16:28:54;0.82;;;0.82;;
54853;SDS011;40747;49.480;8.658;2023-02-03T16:31:58;1.30;;;0.52;;
54853;SDS011;40747;49.480;8.658;2023-02-03T16:34:43;1.20;;;0.90;;
54853;SDS011;40747;49.480;8.658;2023-02-03T16:40:13;0.60;;;0.60;;
54853;SDS011;40747;49.480;8.658;2023-02-03T16:43:01;1.13;;;0.70;;
54853;SDS011;40747;49.480;8.658;2023-02-03T16:45:56;2.08;;;0.70;;
54853;SDS011;40747;49.480;8.658;2023-02-03T16:48:41;1.00;;;0.93;;
54853;SDS011;40747;49.480;8.658;2023-02-03T16:51:25;1.60;;;1.10;;
54853;SDS011;40747;49.480;8.658;2023-02-03T16:54:03;1.27;;;0.90;;
54853;SDS011;40747;49.480;8.658;2023-02-03T16:56:29;0.60;;;0.55;;
54853;SDS011;40747;49.480;8.658;2023-02-03T16:58:55;0.60;;;0.55;;
54853;SDS011;40747;49.480;8.658;2023-02-03T17:01:20;1.33;;;0.73;;
54853;SDS011;40747;49.480;8.658;2023-02-03T17:03:45;1.65;;;1.08;;
54853;SDS011;40747;49.480;8.658;2023-02-03T17:06:11;8.25;;;4.07;;
54853;SDS011;40747;49.480;8.658;2023-02-03T17:08:37;2.15;;;1.30;;
54853;SDS011;40747;49.480;8.658;2023-02-03T17:11:10;3.00;;;2.13;;
54853;SDS011;40747;49.480;8.658;2023-02-03T17:13:39;3.85;;;3.20;;
54853;SDS011;40747;49.480;8.658;2023-02-03T17:16:07;1.20;;;1.10;;
54853;SDS011;40747;49.480;8.658;2023-02-03T17:18:35;1.35;;;1.10;;
54853;SDS011;40747;49.480;8.658;2023-02-03T17:21:04;1.52;;;1.10;;
54853;SDS011;40747;49.480;8.658;2023-02-03T17:23:31;1.52;;;1.15;;
54853;SDS011;40747;49.480;8.658;2023-02-03T17:25:56;1.13;;;0.98;;
54853;SDS011;40747;49.480;8.658;2023-02-03T17:28:22;1.08;;;0.88;;